ADDS METAR Data INFO
IDs: Format: Raw Decoded Include TAF

Data at: 1439 UTC 22 Feb 2018

KHIB 221353Z AUTO 00000KT 10SM CLR M27/M29 A3055 RMK AO2 SLP394 T12721294
KHIB 221253Z AUTO 00000KT 10SM CLR M27/M30 A3055 RMK AO2 SLP390 T12671300
KHIB 221153Z AUTO 00000KT 10SM CLR M27/M29 A3054 RMK AO2 SLP384 T12671294 11244 21289 55001
KHIB 221053Z AUTO 32004KT 10SM CLR M28/M30 A3054 RMK AO2 SLP383 T12781300
KHIB 220953Z AUTO 00000KT 10SM SCT085 M27/M30 A3054 RMK AO2 SLP382 T12671300
KHIB 220853Z AUTO 33003KT 10SM CLR M28/M30 A3054 RMK AO2 SLP386 T12831300 58006
KHIB 220753Z AUTO 00000KT 10SM CLR M27/M29 A3056 RMK AO2 SLP390 T12671294
KHIB 220653Z AUTO 00000KT 10SM CLR M26/M28 A3056 RMK AO2 SLP391 T12561283
KHIB 220553Z AUTO 00000KT 10SM CLR M24/M26 A3056 RMK AO2 SLP392 I1000 I6000 T12441261 11078 21244 410561294 53013
KHIB 220453Z AUTO 00000KT 10SM CLR M23/M25 A3054 RMK AO2 SLP387 T12281250
KHIB 220353Z AUTO 19003KT 10SM CLR M21/M22 A3054 RMK AO2 SLP386 T12061222
KHIB 212353Z AUTO 21003KT 10SM CLR M07/M17 A3049 RMK AO2 SLP368 60000 T10721172 11056 21106 53008
KHIB 212253Z AUTO 24009KT 10SM CLR M06/M18 A3048 RMK AO2 SLP364 T10611178
KHIB 212153Z AUTO 24007KT 10SM CLR M06/M17 A3047 RMK AO2 SLP359 T10561172
KHIB 212053Z AUTO 28008KT 10SM CLR M06/M17 A3047 RMK AO2 UPE1955B27E30 SLP357 P0000 60000 T10611172 50006
KHIB 211953Z AUTO 25010G17KT 10SM UP CLR M07/M17 A3047 RMK AO2 UPB05 SLP355 P0000 T10671172
KHIB 211853Z AUTO 22007KT 190V260 10SM CLR M08/M17 A3047 RMK AO2 UPB37E53 SLP354 P0000 T10831172
KHIB 211753Z AUTO VRB06KT 10SM CLR M11/M18 A3045 RMK AO2 SLP349 60000 T11061183 11106 21294 53021
KHIB 211653Z AUTO 28009KT 10SM CLR M14/M19 A3043 RMK AO2 UPB15E24 SLP342 P0000 T11391194
KHIB 211553Z AUTO VRB03KT 10SM CLR M16/M19 A3040 RMK AO2 SLP335 T11611189
KHIB 211509Z AUTO 17005KT 4SM BR CLR M22/M23 A3040 RMK AO2 T12171228
KHIB 211459Z AUTO 00000KT 1 1/2SM BR CLR M22/M23 A3039 RMK AO2 VIS 3/4V5 T12171233
KHIB 211453Z AUTO 00000KT 6SM BR CLR M24/M26 A3039 RMK AO2 SLP333 T12441261 51018
KHIB 211353Z AUTO 00000KT 10SM CLR M29/M31 A3039 RMK AO2 SLP336 T12891311
KHIB 211253Z AUTO 00000KT 10SM CLR M29/M31 A3037 RMK AO2 SLP330 T12891311
KHIB 210753Z AUTO 21003KT 10SM CLR M21/M22 A3025 RMK AO2 SLP284 T12061217
KHIB 210653Z AUTO VRB04KT 10SM CLR M18/M20 A3023 RMK AO2 SLP275 T11831200
KHIB 210553Z AUTO 26005KT 10SM CLR M17/M19 A3021 RMK AO2 SLP267 T11721194 11117 21172 411111172 51030